createdAt,value
2018-04-13T00:00:09.078Z,9.77
2018-04-13T00:02:36.567Z,8.53
2018-04-13T00:05:04.032Z,6.03
2018-04-13T00:07:31.523Z,6.30
2018-04-13T00:09:59.013Z,5.13
2018-04-13T00:12:26.495Z,6.47
2018-04-13T00:14:53.963Z,5.77
2018-04-13T00:17:21.494Z,5.80
2018-04-13T00:19:48.966Z,8.33
2018-04-13T00:22:16.588Z,4.40
2018-04-13T00:24:44.078Z,7.47
2018-04-13T00:27:11.775Z,6.03
2018-04-13T00:29:39.250Z,9.70
2018-04-13T00:32:06.750Z,4.10
2018-04-13T00:34:34.319Z,5.50
2018-04-13T00:37:01.800Z,8.73
2018-04-13T00:39:29.606Z,5.87
2018-04-13T00:41:57.072Z,5.13
2018-04-13T00:44:24.564Z,6.97
2018-04-13T00:46:52.027Z,3.37
2018-04-13T00:49:19.507Z,4.43
2018-04-13T00:51:46.971Z,5.83
2018-04-13T00:54:14.459Z,5.30
2018-04-13T00:56:42.219Z,5.23
2018-04-13T00:59:09.780Z,4.73
2018-04-13T01:01:37.263Z,4.50
2018-04-13T01:06:27.812Z,4.67
2018-04-13T01:08:55.301Z,4.90
2018-04-13T01:11:22.845Z,5.10
2018-04-13T01:13:50.771Z,5.40
2018-04-13T01:16:18.243Z,7.87
2018-04-13T01:18:45.804Z,8.00
2018-04-13T01:21:13.280Z,8.93
2018-04-13T01:23:40.820Z,10.03
2018-04-13T01:26:08.376Z,6.37
2018-04-13T01:28:35.933Z,5.80
2018-04-13T01:31:03.405Z,6.70
2018-04-13T01:33:31.154Z,6.87
2018-04-13T01:35:58.714Z,5.73
2018-04-13T01:38:26.270Z,8.33
2018-04-13T01:40:53.773Z,6.23
2018-04-13T01:43:21.260Z,7.40
2018-04-13T01:45:48.722Z,5.87
2018-04-13T01:48:16.211Z,4.83
2018-04-13T01:50:43.678Z,6.67
2018-04-13T01:53:11.143Z,7.73
2018-04-13T01:55:38.682Z,12.23
2018-04-13T01:58:06.142Z,5.50
2018-04-13T02:00:33.627Z,4.70
2018-04-13T02:03:01.489Z,11.00
2018-04-13T02:05:28.991Z,4.90
2018-04-13T02:07:56.474Z,4.33
2018-04-13T02:10:23.989Z,5.43
2018-04-13T02:12:51.539Z,4.50
2018-04-13T02:15:19.028Z,5.77
2018-04-13T02:17:46.485Z,4.87
2018-04-13T02:20:13.975Z,5.03
2018-04-13T02:22:41.443Z,4.30
2018-04-13T02:25:08.942Z,4.17
2018-04-13T02:27:36.473Z,3.50
2018-04-13T02:30:03.971Z,5.10
2018-04-13T02:32:31.470Z,6.57
2018-04-13T02:34:58.964Z,3.13
2018-04-13T02:37:38.467Z,3.33
2018-04-13T02:40:05.955Z,2.77
2018-04-13T02:42:33.419Z,3.30
2018-04-13T02:45:00.943Z,3.10
2018-04-13T02:47:28.478Z,3.07
2018-04-13T02:49:55.967Z,2.53
2018-04-13T02:52:23.444Z,3.33
2018-04-13T02:54:50.969Z,2.53
2018-04-13T02:57:18.502Z,2.93
2018-04-13T02:59:46.091Z,4.63
2018-04-13T03:02:13.731Z,2.70
2018-04-13T03:04:41.215Z,5.43
2018-04-13T03:07:08.711Z,2.10
2018-04-13T03:09:36.175Z,2.13
2018-04-13T03:12:03.671Z,4.77
2018-04-13T03:14:31.134Z,2.73
2018-04-13T03:16:58.628Z,4.40
2018-04-13T03:19:26.170Z,3.37
2018-04-13T03:21:53.875Z,1.77
2018-04-13T03:24:21.355Z,2.70
2018-04-13T03:26:48.847Z,3.47
2018-04-13T03:29:16.318Z,3.03
2018-04-13T03:31:43.855Z,2.23
2018-04-13T03:34:11.330Z,6.67
2018-04-13T03:36:38.824Z,2.30
2018-04-13T03:39:06.305Z,2.17
2018-04-13T03:41:33.796Z,8.13
2018-04-13T03:44:01.351Z,1.53
2018-04-13T03:46:28.850Z,1.70
2018-04-13T03:48:56.315Z,1.77
2018-04-13T03:51:23.827Z,3.43
2018-04-13T03:53:51.307Z,1.73
2018-04-13T03:56:18.842Z,2.07
2018-04-13T03:58:46.319Z,2.20
2018-04-13T04:01:13.816Z,3.23
2018-04-13T04:03:41.283Z,1.97
2018-04-13T04:06:08.808Z,3.80
2018-04-13T04:08:36.285Z,2.37
2018-04-13T04:11:03.818Z,2.50
2018-04-13T04:13:31.353Z,2.07
2018-04-13T04:15:58.839Z,3.13
2018-04-13T04:18:26.324Z,3.13
2018-04-13T04:24:07.824Z,2.03
2018-04-13T04:26:49.212Z,5.33
2018-04-13T04:29:16.720Z,2.63
2018-04-13T04:31:44.207Z,1.10
2018-04-13T04:34:11.733Z,2.03
2018-04-13T04:36:39.297Z,1.87
2018-04-13T04:39:06.763Z,1.70
2018-04-13T04:41:34.315Z,1.63
2018-04-13T04:44:01.907Z,1.50
2018-04-13T04:46:29.372Z,1.97
2018-04-13T04:48:56.887Z,1.60
2018-04-13T04:51:24.360Z,2.20
2018-04-13T04:53:51.907Z,1.20
2018-04-13T04:56:19.390Z,0.90
2018-04-13T04:58:46.879Z,1.23
2018-04-13T05:01:14.356Z,1.87
2018-04-13T05:03:41.843Z,2.57
2018-04-13T05:06:09.398Z,1.93
2018-04-13T05:08:36.899Z,1.70
2018-04-13T05:11:04.458Z,5.03
2018-04-13T05:13:31.947Z,1.30
2018-04-13T05:15:59.427Z,2.03
2018-04-13T05:18:26.939Z,1.40
2018-04-13T05:20:54.444Z,2.00
2018-04-13T05:23:21.936Z,1.10
2018-04-13T05:25:49.399Z,1.90
2018-04-13T05:28:16.892Z,1.40
2018-04-13T05:30:44.381Z,1.10
2018-04-13T05:33:11.880Z,0.70
2018-04-13T05:35:39.403Z,3.00
2018-04-13T05:38:06.965Z,1.27
2018-04-13T05:40:34.630Z,1.67
2018-04-13T05:43:02.123Z,0.73
2018-04-13T05:45:29.791Z,3.23
2018-04-13T05:47:57.267Z,2.37
2018-04-13T05:50:24.763Z,2.63
2018-04-13T05:52:52.244Z,0.73
2018-04-13T05:55:19.744Z,0.70
2018-04-13T05:57:47.204Z,0.43
2018-04-13T06:00:14.738Z,2.97
2018-04-13T06:02:42.255Z,0.60
2018-04-13T06:05:09.751Z,1.03
2018-04-13T06:07:37.232Z,1.47
2018-04-13T06:10:04.748Z,4.17
2018-04-13T06:12:32.237Z,1.47
2018-04-13T06:14:59.790Z,0.87
2018-04-13T06:17:27.291Z,0.97
2018-04-13T06:19:54.786Z,2.20
2018-04-13T06:22:22.252Z,2.20
2018-04-13T06:24:49.755Z,0.67
2018-04-13T06:27:17.237Z,0.70
2018-04-13T06:29:44.835Z,2.23
2018-04-13T06:32:12.334Z,0.97
2018-04-13T06:34:39.820Z,1.00
2018-04-13T06:37:07.411Z,1.10
2018-04-13T06:39:34.899Z,2.10
2018-04-13T06:42:02.442Z,1.03
2018-04-13T06:44:29.962Z,2.33
2018-04-13T06:46:57.486Z,2.87
2018-04-13T06:49:24.990Z,3.93
2018-04-13T06:51:52.465Z,1.67
2018-04-13T06:54:19.983Z,1.77
2018-04-13T06:56:47.536Z,1.30
2018-04-13T06:59:15.007Z,1.23
2018-04-13T07:01:42.525Z,1.13
2018-04-13T07:04:09.996Z,1.10
2018-04-13T07:06:37.485Z,1.17
2018-04-13T07:09:05.720Z,1.70
2018-04-13T07:11:33.227Z,6.33
2018-04-13T07:14:00.743Z,1.40
2018-04-13T07:16:28.231Z,2.00
2018-04-13T07:18:55.803Z,1.17
2018-04-13T07:21:23.302Z,3.50
2018-04-13T07:23:50.800Z,2.57
2018-04-13T07:26:18.297Z,2.30
2018-04-13T07:28:45.783Z,4.07
2018-04-13T07:31:13.275Z,1.70
2018-04-13T07:33:41.024Z,1.93
2018-04-13T07:36:08.256Z,2.53
2018-04-13T07:38:35.756Z,2.20
2018-04-13T07:41:03.250Z,1.67
2018-04-13T07:43:31.408Z,1.33
2018-04-13T07:45:58.218Z,2.30
2018-04-13T07:48:25.683Z,2.40
2018-04-13T07:50:53.568Z,2.33
2018-04-13T07:53:21.032Z,2.23
2018-04-13T07:55:48.532Z,4.00
2018-04-13T07:58:15.998Z,1.23
2018-04-13T08:00:43.479Z,1.67
2018-04-13T08:03:10.971Z,1.93
2018-04-13T08:05:38.439Z,1.60
2018-04-13T08:08:05.959Z,3.80
2018-04-13T08:10:33.464Z,2.37
2018-04-13T08:13:00.950Z,1.47
2018-04-13T08:15:28.416Z,1.33
2018-04-13T08:17:55.963Z,1.70
2018-04-13T08:20:23.403Z,2.43
2018-04-13T08:22:50.904Z,1.93
2018-04-13T08:25:18.474Z,2.50
2018-04-13T08:27:45.963Z,2.23
2018-04-13T08:30:13.510Z,2.67
2018-04-13T08:32:41.219Z,1.33
2018-04-13T08:35:08.695Z,1.67
2018-04-13T08:37:36.179Z,2.03
2018-04-13T08:40:03.643Z,1.47
2018-04-13T08:42:31.144Z,1.13
2018-04-13T08:44:58.680Z,2.73
2018-04-13T08:47:26.160Z,1.73
2018-04-13T08:49:53.653Z,1.77
2018-04-13T08:52:21.228Z,1.50
2018-04-13T08:54:48.694Z,1.83
2018-04-13T08:57:16.183Z,2.67
2018-04-13T08:59:43.666Z,0.80
2018-04-13T09:02:11.167Z,1.30
2018-04-13T09:04:38.647Z,1.03
2018-04-13T09:07:06.173Z,1.90
2018-04-13T09:09:33.704Z,7.77
2018-04-13T09:12:01.259Z,1.73
2018-04-13T09:14:39.709Z,1.10
2018-04-13T09:17:07.208Z,4.23
2018-04-13T09:19:34.748Z,1.60
2018-04-13T09:22:02.259Z,2.80
2018-04-13T09:24:29.777Z,2.90
2018-04-13T09:26:57.287Z,1.87
2018-04-13T09:29:24.855Z,2.57
2018-04-13T09:31:52.367Z,2.30
2018-04-13T09:34:19.862Z,2.50
2018-04-13T09:36:47.326Z,0.93
2018-04-13T09:39:15.200Z,1.30
2018-04-13T09:41:42.907Z,1.50
2018-04-13T09:44:10.454Z,1.57
2018-04-13T09:46:38.018Z,2.07
2018-04-13T09:49:05.544Z,4.00
2018-04-13T09:51:33.028Z,0.97
2018-04-13T09:54:00.546Z,1.30
2018-04-13T09:56:28.050Z,1.60
2018-04-13T09:58:56.122Z,1.30
2018-04-13T10:01:23.598Z,0.70
2018-04-13T10:07:02.113Z,0.83
2018-04-13T10:09:29.638Z,1.33
2018-04-13T10:11:57.108Z,0.57
2018-04-13T10:14:24.607Z,0.80
2018-04-13T10:16:52.215Z,1.03
2018-04-13T10:19:19.727Z,2.17
2018-04-13T10:21:47.215Z,1.00
2018-04-13T10:24:14.876Z,2.10
2018-04-13T10:26:42.390Z,1.20
2018-04-13T10:29:09.952Z,1.60
2018-04-13T10:31:37.488Z,0.80
2018-04-13T10:34:04.976Z,0.80
2018-04-13T10:36:32.483Z,1.80
2018-04-13T10:38:59.950Z,1.00
2018-04-13T10:41:27.447Z,1.83
2018-04-13T10:43:54.927Z,0.63
2018-04-13T10:46:22.444Z,2.00
2018-04-13T10:48:49.926Z,0.60
2018-04-13T10:51:17.444Z,1.77
2018-04-13T10:53:44.923Z,2.05
2018-04-13T10:56:12.419Z,1.90
2018-04-13T10:58:39.917Z,1.10
2018-04-13T11:01:07.404Z,1.00
2018-04-13T11:03:34.908Z,1.37
2018-04-13T11:06:02.428Z,2.58
2018-04-13T11:08:29.924Z,1.55
2018-04-13T11:10:57.416Z,0.60
2018-04-13T11:13:24.898Z,1.20
2018-04-13T11:15:52.451Z,1.10
2018-04-13T11:18:19.923Z,1.00
2018-04-13T11:20:47.439Z,0.68
2018-04-13T11:23:14.906Z,0.95
2018-04-13T11:25:42.411Z,0.80
2018-04-13T11:28:09.933Z,1.65
2018-04-13T11:30:37.416Z,2.00
2018-04-13T11:33:04.944Z,1.95
2018-04-13T11:35:32.416Z,0.93
2018-04-13T11:37:59.911Z,0.52
2018-04-13T11:40:27.398Z,1.02
2018-04-13T11:42:54.897Z,0.80
2018-04-13T11:45:22.372Z,1.85
2018-04-13T11:47:49.874Z,1.30
2018-04-13T11:50:17.375Z,1.27
2018-04-13T11:52:44.870Z,0.70
2018-04-13T11:55:12.458Z,1.00
2018-04-13T11:57:40.015Z,0.85
2018-04-13T12:00:07.491Z,1.40
2018-04-13T12:02:34.996Z,0.82
2018-04-13T12:05:02.487Z,1.70
2018-04-13T12:07:30.015Z,1.12
2018-04-13T12:09:57.488Z,2.42
2018-04-13T12:12:24.984Z,2.08
2018-04-13T12:14:52.467Z,1.15
2018-04-13T12:17:19.967Z,3.65
2018-04-13T12:19:47.436Z,2.37
2018-04-13T12:22:14.989Z,1.65
2018-04-13T12:24:42.444Z,1.45
2018-04-13T12:27:09.992Z,1.25
2018-04-13T12:29:37.467Z,0.75
2018-04-13T12:32:04.959Z,0.85
2018-04-13T12:34:32.491Z,1.83
2018-04-13T12:37:00.028Z,1.60
2018-04-13T12:39:28.502Z,1.30
2018-04-13T12:41:55.995Z,1.02
2018-04-13T12:44:23.478Z,3.42
2018-04-13T12:46:50.944Z,1.23
2018-04-13T12:49:18.478Z,1.12
2018-04-13T12:51:46.070Z,0.90
2018-04-13T12:54:13.617Z,0.95
2018-04-13T12:56:41.148Z,0.73
2018-04-13T12:59:08.672Z,1.15
2018-04-13T13:01:36.138Z,1.10
2018-04-13T13:04:03.828Z,1.30
2018-04-13T13:06:31.320Z,1.50
2018-04-13T13:08:58.882Z,3.70
2018-04-13T13:11:26.361Z,1.80
2018-04-13T13:13:54.080Z,3.40
2018-04-13T13:16:21.632Z,4.70
2018-04-13T13:18:49.177Z,3.80
2018-04-13T13:21:16.680Z,1.63
2018-04-13T13:23:44.213Z,1.43
2018-04-13T13:26:11.688Z,1.17
2018-04-13T13:28:39.175Z,0.93
2018-04-13T13:31:06.687Z,1.03
2018-04-13T13:33:34.185Z,1.17
2018-04-13T13:36:01.663Z,1.95
2018-04-13T13:38:29.159Z,1.58
2018-04-13T13:40:56.716Z,0.73
2018-04-13T13:43:24.208Z,1.30
2018-04-13T13:45:51.679Z,1.83
2018-04-13T13:48:19.222Z,2.17
2018-04-13T13:50:46.704Z,1.12
2018-04-13T13:53:14.187Z,3.30
2018-04-13T13:55:41.679Z,0.90
2018-04-13T13:58:09.222Z,0.82
2018-04-13T14:00:36.755Z,0.70
2018-04-13T14:03:04.214Z,0.93
2018-04-13T14:05:31.736Z,1.50
2018-04-13T14:07:59.288Z,1.30
2018-04-13T14:10:26.824Z,2.33
2018-04-13T14:12:54.292Z,1.00
2018-04-13T14:15:21.804Z,2.87
2018-04-13T14:17:49.264Z,1.42
2018-04-13T14:20:16.763Z,1.12
2018-04-13T14:22:44.383Z,1.25
2018-04-13T14:25:11.883Z,1.02
2018-04-13T14:27:39.352Z,0.95
2018-04-13T14:30:06.868Z,2.90
2018-04-13T14:32:34.333Z,0.95
2018-04-13T14:35:01.838Z,1.48
2018-04-13T14:37:29.397Z,1.37
2018-04-13T14:39:56.900Z,0.88
2018-04-13T14:42:24.391Z,1.73
2018-04-13T14:44:51.973Z,1.65
2018-04-13T14:47:19.503Z,1.12
2018-04-13T14:49:46.993Z,1.00
2018-04-13T14:52:14.471Z,1.45
2018-04-13T14:54:41.962Z,2.10
2018-04-13T14:57:09.468Z,3.87
2018-04-13T14:59:37.101Z,1.85
2018-04-13T15:02:04.732Z,1.70
2018-04-13T15:04:32.207Z,2.00
2018-04-13T15:06:59.783Z,0.88
2018-04-13T15:09:27.272Z,1.33
2018-04-13T15:11:54.824Z,1.12
2018-04-13T15:14:22.290Z,2.28
2018-04-13T15:16:49.805Z,0.80
2018-04-13T15:19:17.307Z,1.20
2018-04-13T15:21:44.810Z,1.50
2018-04-13T15:24:12.419Z,1.80
2018-04-13T15:26:39.940Z,1.27
2018-04-13T15:29:07.419Z,2.75
2018-04-13T15:31:34.954Z,1.15
2018-04-13T15:34:02.426Z,2.45
2018-04-13T15:36:29.923Z,1.00
2018-04-13T15:38:57.411Z,2.15
2018-04-13T15:41:24.919Z,4.12
2018-04-13T15:43:52.503Z,1.10
2018-04-13T15:46:20.010Z,1.20
2018-04-13T15:48:47.501Z,2.05
2018-04-13T15:51:14.992Z,3.03
2018-04-13T15:53:42.459Z,2.77
2018-04-13T15:56:09.980Z,1.97
2018-04-13T15:58:37.448Z,3.17
2018-04-13T16:01:04.947Z,3.07
2018-04-13T16:03:32.474Z,1.20
2018-04-13T16:05:59.943Z,0.70
2018-04-13T16:08:27.574Z,1.47
2018-04-13T16:10:55.057Z,1.50
2018-04-13T16:13:23.000Z,3.40
2018-04-13T16:15:50.538Z,3.30
2018-04-13T16:18:18.047Z,2.00
2018-04-13T16:20:45.579Z,0.97
2018-04-13T16:23:13.076Z,2.30
2018-04-13T16:25:40.544Z,1.30
2018-04-13T16:28:08.119Z,1.40
2018-04-13T16:30:35.675Z,0.93
2018-04-13T16:33:03.177Z,0.80
2018-04-13T16:35:30.699Z,1.00
2018-04-13T16:37:58.188Z,0.80
2018-04-13T16:40:25.749Z,1.17
2018-04-13T16:42:53.273Z,0.70
2018-04-13T16:45:20.826Z,1.10
2018-04-13T16:47:48.469Z,3.53
2018-04-13T16:50:15.955Z,1.73
2018-04-13T16:52:43.464Z,1.07
2018-04-13T16:55:10.939Z,1.93
2018-04-13T16:57:38.567Z,1.27
2018-04-13T17:00:06.038Z,1.80
2018-04-13T17:02:33.543Z,0.80
2018-04-13T17:05:01.041Z,2.23
2018-04-13T17:07:28.527Z,1.37
2018-04-13T17:09:56.021Z,1.07
2018-04-13T17:12:23.527Z,1.60
2018-04-13T17:14:51.023Z,1.00
2018-04-13T17:17:18.597Z,1.00
2018-04-13T17:19:46.075Z,0.90
2018-04-13T17:22:13.547Z,2.30
2018-04-13T17:24:41.048Z,0.70
2018-04-13T17:27:08.512Z,0.60
2018-04-13T17:29:36.001Z,0.70
2018-04-13T17:32:03.558Z,1.07
2018-04-13T17:34:31.103Z,2.83
2018-04-13T17:36:58.572Z,1.67
2018-04-13T17:39:26.100Z,2.33
2018-04-13T17:41:53.571Z,1.93
2018-04-13T17:44:21.072Z,1.70
2018-04-13T17:46:48.619Z,1.20
2018-04-13T17:49:16.116Z,1.57
2018-04-13T17:51:43.606Z,1.60
2018-04-13T17:54:11.103Z,1.90
2018-04-13T17:56:38.584Z,1.30
2018-04-13T17:59:06.108Z,2.50
2018-04-13T18:01:33.591Z,2.40
2018-04-13T18:04:01.098Z,2.60
2018-04-13T18:06:28.702Z,3.00
2018-04-13T18:08:56.207Z,6.53
2018-04-13T18:11:23.723Z,4.40
2018-04-13T18:13:51.226Z,3.43
2018-04-13T18:16:18.707Z,6.00
2018-04-13T18:18:46.267Z,7.70
2018-04-13T18:21:13.781Z,6.87
2018-04-13T18:23:41.256Z,7.03
2018-04-13T18:26:08.771Z,8.83
2018-04-13T18:28:36.238Z,12.10
2018-04-13T18:31:03.772Z,19.03
2018-04-13T18:33:31.265Z,32.37
2018-04-13T18:35:58.786Z,29.27
2018-04-13T18:38:26.278Z,23.40
2018-04-13T18:40:53.815Z,15.70
2018-04-13T18:43:21.324Z,12.97
2018-04-13T18:45:48.812Z,9.07
2018-04-13T18:48:16.291Z,5.43
2018-04-13T18:50:43.787Z,3.90
2018-04-13T18:53:11.251Z,3.90
2018-04-13T18:55:38.781Z,5.70
2018-04-13T18:58:06.283Z,4.60
2018-04-13T19:00:33.788Z,7.33
2018-04-13T19:03:01.255Z,6.00
2018-04-13T19:05:28.759Z,4.73
2018-04-13T19:07:56.224Z,4.57
2018-04-13T19:10:23.787Z,3.83
2018-04-13T19:12:51.273Z,3.03
2018-04-13T19:15:18.807Z,4.10
2018-04-13T19:17:46.276Z,3.23
2018-04-13T19:20:13.787Z,2.90
2018-04-13T19:22:41.259Z,3.73
2018-04-13T19:25:08.759Z,2.57
2018-04-13T19:27:36.302Z,6.77
2018-04-13T19:30:03.792Z,2.50
2018-04-13T19:32:31.281Z,4.33
2018-04-13T19:34:58.785Z,3.13
2018-04-13T19:37:26.256Z,2.67
2018-04-13T19:39:54.724Z,3.43
2018-04-13T19:42:22.219Z,3.23
2018-04-13T19:44:49.694Z,4.07
2018-04-13T19:47:17.184Z,4.87
2018-04-13T19:49:44.649Z,3.87
2018-04-13T19:52:12.156Z,3.60
2018-04-13T19:54:39.642Z,2.47
2018-04-13T19:57:07.143Z,3.67
2018-04-13T19:59:34.640Z,4.20
2018-04-13T20:02:03.079Z,3.00
2018-04-13T20:04:30.548Z,3.63
2018-04-13T20:06:58.299Z,3.10
2018-04-13T20:09:25.839Z,3.63
2018-04-13T20:11:53.334Z,4.83
2018-04-13T20:14:25.813Z,2.50
2018-04-13T20:16:53.334Z,3.33
2018-04-13T20:19:20.823Z,4.43
2018-04-13T20:21:48.320Z,3.80
2018-04-13T20:24:15.803Z,3.13
2018-04-13T20:26:43.303Z,3.23
2018-04-13T20:29:10.782Z,3.03
2018-04-13T20:31:38.295Z,3.23
2018-04-13T20:34:05.763Z,2.73
2018-04-13T20:36:33.328Z,2.73
2018-04-13T20:39:01.757Z,1.50
2018-04-13T20:41:29.260Z,1.60
2018-04-13T20:43:56.798Z,2.60
2018-04-13T20:46:24.267Z,2.50
2018-04-13T20:48:51.786Z,2.60
2018-04-13T20:51:19.272Z,2.10
2018-04-13T20:53:46.762Z,2.13
2018-04-13T20:56:14.243Z,1.83
2018-04-13T20:58:41.732Z,2.17
2018-04-13T21:01:09.236Z,2.43
2018-04-13T21:03:37.870Z,2.10
2018-04-13T21:06:05.499Z,4.13
2018-04-13T21:08:33.028Z,3.03
2018-04-13T21:11:00.523Z,2.53
2018-04-13T21:13:28.015Z,5.83
2018-04-13T21:15:55.488Z,3.83
2018-04-13T21:18:22.983Z,5.00
2018-04-13T21:20:50.452Z,5.07
2018-04-13T21:23:17.947Z,5.53
2018-04-13T21:25:45.416Z,3.77
2018-04-13T21:28:12.903Z,4.40
2018-04-13T21:30:40.394Z,4.97
2018-04-13T21:33:07.903Z,2.37
2018-04-13T21:35:35.404Z,3.70
2018-04-13T21:38:02.899Z,4.60
2018-04-13T21:40:30.383Z,3.90
2018-04-13T21:42:57.907Z,3.00
2018-04-13T21:45:25.393Z,3.90
2018-04-13T21:47:52.920Z,2.87
2018-04-13T21:50:20.460Z,3.50
2018-04-13T21:52:48.329Z,3.40
2018-04-13T21:55:15.849Z,2.50
2018-04-13T21:57:43.504Z,2.57
2018-04-13T22:00:10.995Z,3.53
2018-04-13T22:02:38.467Z,4.67
2018-04-13T22:05:05.960Z,3.13
2018-04-13T22:07:33.424Z,3.40
2018-04-13T22:10:00.926Z,2.90
2018-04-13T22:12:40.138Z,5.10
2018-04-13T22:15:07.631Z,5.73
2018-04-13T22:17:35.091Z,4.90
2018-04-13T22:20:02.642Z,3.63
2018-04-13T22:22:30.120Z,5.30
2018-04-13T22:24:57.629Z,3.40
2018-04-13T22:27:25.105Z,5.10
2018-04-13T22:29:52.614Z,3.40
2018-04-13T22:32:20.082Z,6.83
2018-04-13T22:34:47.602Z,3.60
2018-04-13T22:37:15.074Z,3.73
2018-04-13T22:39:42.600Z,4.20
2018-04-13T22:42:10.141Z,3.53
2018-04-13T22:44:37.637Z,5.37
2018-04-13T22:47:05.118Z,4.33
2018-04-13T22:49:32.624Z,3.17
2018-04-13T22:52:00.178Z,4.33
2018-04-13T22:54:27.652Z,5.67
2018-04-13T22:56:55.147Z,6.60
2018-04-13T22:59:22.646Z,5.10
2018-04-13T23:01:50.134Z,4.33
2018-04-13T23:04:17.824Z,5.80
2018-04-13T23:06:45.325Z,4.03
2018-04-13T23:09:12.790Z,8.43
2018-04-13T23:11:40.290Z,4.57
2018-04-13T23:14:07.767Z,4.10
2018-04-13T23:16:35.259Z,4.27
2018-04-13T23:19:02.767Z,4.93
2018-04-13T23:21:30.253Z,5.30
2018-04-13T23:23:57.728Z,4.50
2018-04-13T23:26:25.216Z,4.50
2018-04-13T23:28:52.858Z,4.23
2018-04-13T23:31:20.422Z,4.97
2018-04-13T23:33:47.984Z,5.20
2018-04-13T23:36:15.475Z,4.53
2018-04-13T23:38:42.941Z,5.40
2018-04-13T23:41:10.988Z,6.60
2018-04-13T23:43:38.449Z,4.37
2018-04-13T23:46:05.991Z,6.00
2018-04-13T23:48:34.388Z,4.80
2018-04-13T23:51:01.876Z,4.53
2018-04-13T23:53:29.395Z,3.97
2018-04-13T23:55:56.879Z,3.90
2018-04-13T23:58:24.470Z,6.03
